sensor_id;sensor_type;location;lat;lon;timestamp;pressure;altitude;pressure_sealevel;temperature;humidity
73338;BME280;61575;49.908;35.556;2023-12-04T00:01:12;99182.44;;;-1.84;83.59
73338;BME280;61575;49.908;35.556;2023-12-04T00:04:14;99188.84;;;-1.88;83.81
73338;BME280;61575;49.908;35.556;2023-12-04T00:07:16;99188.69;;;-1.72;84.20
73338;BME280;61575;49.908;35.556;2023-12-04T00:10:18;99174.38;;;-1.68;83.51
73338;BME280;61575;49.908;35.556;2023-12-04T00:13:20;99175.19;;;-1.81;83.48
73338;BME280;61575;49.908;35.556;2023-12-04T00:16:22;99181.09;;;-1.77;83.55
73338;BME280;61575;49.908;35.556;2023-12-04T00:19:25;99187.84;;;-1.73;83.44
73338;BME280;61575;49.908;35.556;2023-12-04T00:22:28;99195.59;;;-1.84;83.73
73338;BME280;61575;49.908;35.556;2023-12-04T00:25:31;99189.59;;;-1.86;83.95
73338;BME280;61575;49.908;35.556;2023-12-04T00:28:35;99189.06;;;-1.91;84.26
73338;BME280;61575;49.908;35.556;2023-12-04T00:31:37;99217.81;;;-1.88;84.12
73338;BME280;61575;49.908;35.556;2023-12-04T00:34:39;99218.34;;;-1.83;84.05
73338;BME280;61575;49.908;35.556;2023-12-04T00:37:41;99209.50;;;-1.82;83.81
73338;BME280;61575;49.908;35.556;2023-12-04T00:40:44;99225.69;;;-1.88;83.81
73338;BME280;61575;49.908;35.556;2023-12-04T00:43:46;99219.09;;;-2.08;83.61
73338;BME280;61575;49.908;35.556;2023-12-04T00:46:48;99229.38;;;-1.91;83.82
73338;BME280;61575;49.908;35.556;2023-12-04T00:49:50;99223.34;;;-1.93;83.77
73338;BME280;61575;49.908;35.556;2023-12-04T00:52:52;99216.69;;;-1.98;83.70
73338;BME280;61575;49.908;35.556;2023-12-04T00:55:55;99234.94;;;-1.95;83.43
73338;BME280;61575;49.908;35.556;2023-12-04T00:58:57;99234.94;;;-1.95;83.74
73338;BME280;61575;49.908;35.556;2023-12-04T01:01:59;99248.38;;;-2.00;83.92
73338;BME280;61575;49.908;35.556;2023-12-04T01:05:01;99249.78;;;-1.94;83.69
73338;BME280;61575;49.908;35.556;2023-12-04T01:08:03;99259.56;;;-1.96;83.80
73338;BME280;61575;49.908;35.556;2023-12-04T01:11:06;99262.44;;;-1.87;83.79
73338;BME280;61575;49.908;35.556;2023-12-04T01:14:08;99263.50;;;-2.03;83.53
73338;BME280;61575;49.908;35.556;2023-12-04T01:17:10;99257.69;;;-2.09;83.70
73338;BME280;61575;49.908;35.556;2023-12-04T01:20:12;99251.63;;;-2.23;83.55
73338;BME280;61575;49.908;35.556;2023-12-04T01:23:14;99256.00;;;-2.10;83.91
73338;BME280;61575;49.908;35.556;2023-12-04T01:26:16;99253.75;;;-2.01;83.57
73338;BME280;61575;49.908;35.556;2023-12-04T01:29:19;99248.75;;;-2.06;83.13
73338;BME280;61575;49.908;35.556;2023-12-04T01:32:21;99263.91;;;-2.10;83.65
73338;BME280;61575;49.908;35.556;2023-12-04T01:35:22;99271.50;;;-2.05;83.24
73338;BME280;61575;49.908;35.556;2023-12-04T01:38:25;99272.28;;;-2.17;82.77
73338;BME280;61575;49.908;35.556;2023-12-04T01:41:28;99283.84;;;-2.20;83.04
73338;BME280;61575;49.908;35.556;2023-12-04T01:44:30;99281.19;;;-2.20;82.66
73338;BME280;61575;49.908;35.556;2023-12-04T01:47:32;99281.84;;;-2.16;82.66
73338;BME280;61575;49.908;35.556;2023-12-04T01:50:35;99282.97;;;-2.20;82.90
73338;BME280;61575;49.908;35.556;2023-12-04T01:53:39;99280.84;;;-2.28;82.86
73338;BME280;61575;49.908;35.556;2023-12-04T01:56:42;99277.72;;;-2.20;82.84
73338;BME280;61575;49.908;35.556;2023-12-04T01:59:45;99270.50;;;-2.31;82.78
73338;BME280;61575;49.908;35.556;2023-12-04T02:02:47;99289.94;;;-2.33;82.63
73338;BME280;61575;49.908;35.556;2023-12-04T02:05:51;99287.22;;;-2.32;82.07
73338;BME280;61575;49.908;35.556;2023-12-04T02:08:53;99301.50;;;-2.22;82.30
73338;BME280;61575;49.908;35.556;2023-12-04T02:11:55;99295.66;;;-2.13;82.28
73338;BME280;61575;49.908;35.556;2023-12-04T02:15:00;99309.75;;;-2.14;82.13
73338;BME280;61575;49.908;35.556;2023-12-04T02:18:03;99325.63;;;-2.29;82.12
73338;BME280;61575;49.908;35.556;2023-12-04T02:21:06;99320.84;;;-2.23;82.14
73338;BME280;61575;49.908;35.556;2023-12-04T02:24:08;99318.59;;;-2.29;81.96
73338;BME280;61575;49.908;35.556;2023-12-04T02:27:17;99329.88;;;-2.27;81.94
73338;BME280;61575;49.908;35.556;2023-12-04T02:30:22;99340.56;;;-2.30;81.74
73338;BME280;61575;49.908;35.556;2023-12-04T02:33:26;99327.03;;;-2.24;81.98
73338;BME280;61575;49.908;35.556;2023-12-04T02:36:30;99329.94;;;-2.14;81.90
73338;BME280;61575;49.908;35.556;2023-12-04T02:39:33;99326.66;;;-2.18;81.95
73338;BME280;61575;49.908;35.556;2023-12-04T02:42:35;99338.22;;;-2.20;81.86
73338;BME280;61575;49.908;35.556;2023-12-04T02:45:37;99336.44;;;-2.20;82.19
73338;BME280;61575;49.908;35.556;2023-12-04T02:48:39;99353.72;;;-2.16;82.31
73338;BME280;61575;49.908;35.556;2023-12-04T02:51:41;99352.31;;;-2.21;82.23
73338;BME280;61575;49.908;35.556;2023-12-04T02:54:44;99357.28;;;-2.31;81.48
73338;BME280;61575;49.908;35.556;2023-12-04T02:57:46;99355.31;;;-2.27;81.39
73338;BME280;61575;49.908;35.556;2023-12-04T03:00:48;99357.09;;;-2.28;81.09
73338;BME280;61575;49.908;35.556;2023-12-04T03:03:50;99364.16;;;-2.28;81.45
73338;BME280;61575;49.908;35.556;2023-12-04T03:06:52;99351.47;;;-2.36;81.58
73338;BME280;61575;49.908;35.556;2023-12-04T03:09:54;99365.00;;;-2.28;81.62
73338;BME280;61575;49.908;35.556;2023-12-04T03:12:56;99367.06;;;-2.33;81.42
73338;BME280;61575;49.908;35.556;2023-12-04T03:15:59;99371.94;;;-2.27;81.42
73338;BME280;61575;49.908;35.556;2023-12-04T03:19:01;99375.63;;;-2.15;81.36
73338;BME280;61575;49.908;35.556;2023-12-04T03:22:03;99379.28;;;-2.32;81.36
73338;BME280;61575;49.908;35.556;2023-12-04T03:25:06;99379.09;;;-2.29;81.39
73338;BME280;61575;49.908;35.556;2023-12-04T03:28:08;99377.19;;;-2.27;81.24
73338;BME280;61575;49.908;35.556;2023-12-04T03:31:10;99377.19;;;-2.27;81.06
73338;BME280;61575;49.908;35.556;2023-12-04T03:34:12;99380.03;;;-2.30;81.16
73338;BME280;61575;49.908;35.556;2023-12-04T03:37:14;99376.47;;;-2.15;80.95
73338;BME280;61575;49.908;35.556;2023-12-04T03:40:17;99377.31;;;-2.14;81.22
73338;BME280;61575;49.908;35.556;2023-12-04T03:43:19;99391.97;;;-2.10;81.41
73338;BME280;61575;49.908;35.556;2023-12-04T03:46:21;99385.00;;;-2.25;81.47
73338;BME280;61575;49.908;35.556;2023-12-04T03:49:23;99392.06;;;-2.12;81.09
73338;BME280;61575;49.908;35.556;2023-12-04T03:52:26;99399.56;;;-2.05;81.58
73338;BME280;61575;49.908;35.556;2023-12-04T03:55:28;99405.31;;;-2.13;80.95
73338;BME280;61575;49.908;35.556;2023-12-04T03:58:31;99409.06;;;-2.17;81.31
73338;BME280;61575;49.908;35.556;2023-12-04T04:01:33;99413.66;;;-2.21;81.04
73338;BME280;61575;49.908;35.556;2023-12-04T04:04:36;99420.78;;;-2.23;80.76
73338;BME280;61575;49.908;35.556;2023-12-04T04:07:38;99429.06;;;-2.29;80.06
73338;BME280;61575;49.908;35.556;2023-12-04T04:10:41;99430.66;;;-2.26;79.29
73338;BME280;61575;49.908;35.556;2023-12-04T04:13:43;99424.75;;;-2.16;79.42
73338;BME280;61575;49.908;35.556;2023-12-04T04:16:45;99429.44;;;-2.21;79.09
73338;BME280;61575;49.908;35.556;2023-12-04T04:19:47;99428.50;;;-2.20;78.87
73338;BME280;61575;49.908;35.556;2023-12-04T04:22:49;99430.69;;;-2.12;79.43
73338;BME280;61575;49.908;35.556;2023-12-04T04:25:51;99431.53;;;-2.12;79.28
73338;BME280;61575;49.908;35.556;2023-12-04T04:28:53;99440.56;;;-2.01;79.38
73338;BME280;61575;49.908;35.556;2023-12-04T04:31:56;99443.38;;;-2.04;78.97
73338;BME280;61575;49.908;35.556;2023-12-04T04:34:58;99449.28;;;-2.01;78.92
73338;BME280;61575;49.908;35.556;2023-12-04T04:38:00;99462.00;;;-1.93;78.85
73338;BME280;61575;49.908;35.556;2023-12-04T04:41:02;99468.00;;;-1.91;78.51
73338;BME280;61575;49.908;35.556;2023-12-04T04:44:04;99468.56;;;-2.00;78.40
73338;BME280;61575;49.908;35.556;2023-12-04T04:47:06;99463.09;;;-1.97;78.61
73338;BME280;61575;49.908;35.556;2023-12-04T04:50:09;99466.88;;;-2.01;78.34
73338;BME280;61575;49.908;35.556;2023-12-04T04:53:11;99477.47;;;-2.03;77.94
73338;BME280;61575;49.908;35.556;2023-12-04T04:56:13;99467.47;;;-2.26;77.35
73338;BME280;61575;49.908;35.556;2023-12-04T04:59:15;99476.44;;;-2.15;77.59
73338;BME280;61575;49.908;35.556;2023-12-04T05:02:17;99484.78;;;-2.22;76.48
73338;BME280;61575;49.908;35.556;2023-12-04T05:05:19;99490.03;;;-2.22;76.15
73338;BME280;61575;49.908;35.556;2023-12-04T05:08:21;99484.50;;;-2.18;76.10
73338;BME280;61575;49.908;35.556;2023-12-04T05:11:23;99486.09;;;-2.15;76.07
73338;BME280;61575;49.908;35.556;2023-12-04T05:14:25;99485.91;;;-2.12;76.13
73338;BME280;61575;49.908;35.556;2023-12-04T05:17:29;99494.56;;;-2.10;76.67
73338;BME280;61575;49.908;35.556;2023-12-04T05:20:31;99499.25;;;-2.15;76.30
73338;BME280;61575;49.908;35.556;2023-12-04T05:23:33;99507.28;;;-2.02;76.52
73338;BME280;61575;49.908;35.556;2023-12-04T05:26:35;99507.94;;;-1.99;76.86
73338;BME280;61575;49.908;35.556;2023-12-04T05:29:37;99519.56;;;-2.03;76.97
73338;BME280;61575;49.908;35.556;2023-12-04T05:32:39;99529.84;;;-1.98;77.18
73338;BME280;61575;49.908;35.556;2023-12-04T05:35:42;99532.38;;;-1.97;77.11
73338;BME280;61575;49.908;35.556;2023-12-04T05:38:44;99539.41;;;-1.97;77.27
73338;BME280;61575;49.908;35.556;2023-12-04T05:41:46;99535.31;;;-2.17;76.24
73338;BME280;61575;49.908;35.556;2023-12-04T05:44:48;99537.69;;;-2.13;76.31
73338;BME280;61575;49.908;35.556;2023-12-04T05:47:50;99533.94;;;-2.09;76.44
73338;BME280;61575;49.908;35.556;2023-12-04T05:50:52;99539.66;;;-2.16;75.84
73338;BME280;61575;49.908;35.556;2023-12-04T05:53:54;99533.81;;;-2.21;76.08
73338;BME280;61575;49.908;35.556;2023-12-04T05:56:56;99545.22;;;-2.06;76.27
73338;BME280;61575;49.908;35.556;2023-12-04T05:59:58;99543.94;;;-1.99;76.41
73338;BME280;61575;49.908;35.556;2023-12-04T06:03:01;99543.94;;;-1.99;76.48
73338;BME280;61575;49.908;35.556;2023-12-04T06:06:03;99540.19;;;-1.95;76.13
73338;BME280;61575;49.908;35.556;2023-12-04T06:09:06;99545.44;;;-1.95;76.57
73338;BME280;61575;49.908;35.556;2023-12-04T06:12:08;99546.09;;;-1.92;76.88
73338;BME280;61575;49.908;35.556;2023-12-04T06:15:11;99541.50;;;-1.88;76.78
73338;BME280;61575;49.908;35.556;2023-12-04T06:18:13;99550.81;;;-1.83;77.25
73338;BME280;61575;49.908;35.556;2023-12-04T06:21:15;99554.50;;;-1.85;77.02
73338;BME280;61575;49.908;35.556;2023-12-04T06:24:18;99554.94;;;-1.93;77.15
73338;BME280;61575;49.908;35.556;2023-12-04T06:27:20;99547.25;;;-1.82;77.46
73338;BME280;61575;49.908;35.556;2023-12-04T06:30:22;99562.28;;;-1.84;76.94
73338;BME280;61575;49.908;35.556;2023-12-04T06:33:24;99576.66;;;-1.89;75.93
73338;BME280;61575;49.908;35.556;2023-12-04T06:36:29;99567.56;;;-1.84;75.65
73338;BME280;61575;49.908;35.556;2023-12-04T06:39:33;99571.97;;;-1.84;74.99
73338;BME280;61575;49.908;35.556;2023-12-04T06:42:36;99569.81;;;-1.78;74.31
73338;BME280;61575;49.908;35.556;2023-12-04T06:45:38;99575.75;;;-1.74;73.41
73338;BME280;61575;49.908;35.556;2023-12-04T06:48:42;99578.97;;;-1.69;73.13
73338;BME280;61575;49.908;35.556;2023-12-04T06:51:45;99580.50;;;-1.51;72.93
73338;BME280;61575;49.908;35.556;2023-12-04T06:54:47;99574.47;;;-1.38;73.05
73338;BME280;61575;49.908;35.556;2023-12-04T06:57:49;99579.75;;;-1.24;72.46
73338;BME280;61575;49.908;35.556;2023-12-04T07:00:52;99591.25;;;-1.25;72.61
73338;BME280;61575;49.908;35.556;2023-12-04T07:03:55;99604.22;;;-1.36;72.61
73338;BME280;61575;49.908;35.556;2023-12-04T07:06:57;99593.47;;;-1.48;72.56
73338;BME280;61575;49.908;35.556;2023-12-04T07:10:02;99603.22;;;-1.64;71.86
73338;BME280;61575;49.908;35.556;2023-12-04T07:13:05;99613.31;;;-1.86;71.18
73338;BME280;61575;49.908;35.556;2023-12-04T07:16:07;99619.94;;;-1.79;71.83
73338;BME280;61575;49.908;35.556;2023-12-04T07:19:10;99621.44;;;-1.75;71.10
73338;BME280;61575;49.908;35.556;2023-12-04T07:22:12;99635.09;;;-1.98;70.84
73338;BME280;61575;49.908;35.556;2023-12-04T07:25:14;99628.28;;;-1.87;71.25
73338;BME280;61575;49.908;35.556;2023-12-04T07:28:18;99635.28;;;-2.01;71.27
73338;BME280;61575;49.908;35.556;2023-12-04T07:31:21;99642.06;;;-1.97;71.16
73338;BME280;61575;49.908;35.556;2023-12-04T07:34:23;99643.34;;;-2.04;71.04
73338;BME280;61575;49.908;35.556;2023-12-04T07:37:25;99659.56;;;-2.12;71.02
73338;BME280;61575;49.908;35.556;2023-12-04T07:40:28;99664.56;;;-2.08;71.26
73338;BME280;61575;49.908;35.556;2023-12-04T07:43:30;99669.22;;;-1.97;71.26
73338;BME280;61575;49.908;35.556;2023-12-04T07:46:32;99670.59;;;-2.05;71.07
73338;BME280;61575;49.908;35.556;2023-12-04T07:49:34;99669.97;;;-1.95;71.04
73338;BME280;61575;49.908;35.556;2023-12-04T07:52:37;99682.16;;;-1.78;71.25
73338;BME280;61575;49.908;35.556;2023-12-04T07:55:39;99675.97;;;-1.77;71.05
73338;BME280;61575;49.908;35.556;2023-12-04T07:58:41;99677.50;;;-1.73;70.66
73338;BME280;61575;49.908;35.556;2023-12-04T08:01:43;99679.19;;;-1.72;70.89
73338;BME280;61575;49.908;35.556;2023-12-04T08:04:46;99689.63;;;-1.70;70.91
73338;BME280;61575;49.908;35.556;2023-12-04T08:07:49;99693.28;;;-1.73;71.33
73338;BME280;61575;49.908;35.556;2023-12-04T08:10:51;99685.31;;;-1.87;70.93
73338;BME280;61575;49.908;35.556;2023-12-04T08:13:53;99697.22;;;-1.80;71.65
73338;BME280;61575;49.908;35.556;2023-12-04T08:16:55;99698.22;;;-1.83;71.87
73338;BME280;61575;49.908;35.556;2023-12-04T08:19:57;99707.91;;;-1.83;72.08
73338;BME280;61575;49.908;35.556;2023-12-04T08:22:59;99717.91;;;-1.74;72.67
73338;BME280;61575;49.908;35.556;2023-12-04T08:26:02;99724.22;;;-1.92;72.95
73338;BME280;61575;49.908;35.556;2023-12-04T08:29:05;99711.81;;;-1.90;73.78
73338;BME280;61575;49.908;35.556;2023-12-04T08:32:07;99712.38;;;-1.69;73.42
73338;BME280;61575;49.908;35.556;2023-12-04T08:35:09;99720.78;;;-1.63;72.52
73338;BME280;61575;49.908;35.556;2023-12-04T08:38:11;99714.66;;;-1.63;71.69
73338;BME280;61575;49.908;35.556;2023-12-04T08:41:14;99707.56;;;-1.77;71.66
73338;BME280;61575;49.908;35.556;2023-12-04T08:44:17;99709.91;;;-1.57;71.77
73338;BME280;61575;49.908;35.556;2023-12-04T08:47:19;99713.81;;;-1.64;71.36
73338;BME280;61575;49.908;35.556;2023-12-04T08:50:21;99707.25;;;-1.57;71.48
73338;BME280;61575;49.908;35.556;2023-12-04T08:53:23;99704.81;;;-1.60;71.23
73338;BME280;61575;49.908;35.556;2023-12-04T08:56:27;99710.75;;;-1.56;71.68
73338;BME280;61575;49.908;35.556;2023-12-04T08:59:32;99703.03;;;-1.59;71.78
73338;BME280;61575;49.908;35.556;2023-12-04T09:02:35;99705.66;;;-1.59;71.97
73338;BME280;61575;49.908;35.556;2023-12-04T09:05:51;99701.19;;;-1.73;72.17
73338;BME280;61575;49.908;35.556;2023-12-04T09:08:54;99707.63;;;-1.63;72.57
73338;BME280;61575;49.908;35.556;2023-12-04T09:12:07;99703.72;;;-1.71;72.45
73338;BME280;61575;49.908;35.556;2023-12-04T09:15:10;99689.41;;;-1.82;71.82
73338;BME280;61575;49.908;35.556;2023-12-04T09:18:13;99698.63;;;-1.74;72.91
73338;BME280;61575;49.908;35.556;2023-12-04T09:21:18;99695.44;;;-1.95;72.72
73338;BME280;61575;49.908;35.556;2023-12-04T09:24:20;99696.22;;;-2.09;72.81
73338;BME280;61575;49.908;35.556;2023-12-04T09:27:22;99707.50;;;-2.23;73.63
73338;BME280;61575;49.908;35.556;2023-12-04T09:30:25;99703.16;;;-1.92;73.29
73338;BME280;61575;49.908;35.556;2023-12-04T09:33:27;99712.84;;;-1.93;73.25
73338;BME280;61575;49.908;35.556;2023-12-04T09:36:30;99720.16;;;-1.98;73.48
73338;BME280;61575;49.908;35.556;2023-12-04T09:39:32;99707.25;;;-2.02;73.58
73338;BME280;61575;49.908;35.556;2023-12-04T09:42:35;99701.31;;;-2.37;73.86
73338;BME280;61575;49.908;35.556;2023-12-04T09:45:37;99707.41;;;-2.37;73.80
73338;BME280;61575;49.908;35.556;2023-12-04T09:48:41;99715.06;;;-2.01;74.35
73338;BME280;61575;49.908;35.556;2023-12-04T09:51:45;99724.91;;;-2.04;73.67
73338;BME280;61575;49.908;35.556;2023-12-04T09:54:48;99726.44;;;-2.00;73.64
73338;BME280;61575;49.908;35.556;2023-12-04T09:57:54;99728.47;;;-2.05;73.28
73338;BME280;61575;49.908;35.556;2023-12-04T10:01:00;99732.63;;;-1.86;73.41
73338;BME280;61575;49.908;35.556;2023-12-04T10:04:03;99725.41;;;-1.98;73.72
73338;BME280;61575;49.908;35.556;2023-12-04T10:07:07;99733.72;;;-1.90;73.74
73338;BME280;61575;49.908;35.556;2023-12-04T10:10:09;99734.75;;;-1.92;73.79
73338;BME280;61575;49.908;35.556;2023-12-04T10:13:11;99738.22;;;-1.92;73.32
73338;BME280;61575;49.908;35.556;2023-12-04T10:16:35;99740.25;;;-1.81;73.26
73338;BME280;61575;49.908;35.556;2023-12-04T10:19:37;99735.75;;;-1.79;73.50
73338;BME280;61575;49.908;35.556;2023-12-04T10:22:57;99729.91;;;-1.84;72.74
73338;BME280;61575;49.908;35.556;2023-12-04T10:26:00;99724.34;;;-1.64;73.32
73338;BME280;61575;49.908;35.556;2023-12-04T10:29:03;99721.56;;;-1.77;72.70
73338;BME280;61575;49.908;35.556;2023-12-04T10:32:06;99733.63;;;-1.72;73.25
73338;BME280;61575;49.908;35.556;2023-12-04T10:35:09;99738.53;;;-1.66;73.12
73338;BME280;61575;49.908;35.556;2023-12-04T10:38:11;99736.09;;;-1.85;72.86
73338;BME280;61575;49.908;35.556;2023-12-04T10:41:16;99739.00;;;-1.90;73.49
73338;BME280;61575;49.908;35.556;2023-12-04T10:44:18;99732.72;;;-1.87;73.51
73338;BME280;61575;49.908;35.556;2023-12-04T10:47:20;99744.25;;;-2.21;73.24
73338;BME280;61575;49.908;35.556;2023-12-04T10:50:23;99749.34;;;-2.02;73.57
73338;BME280;61575;49.908;35.556;2023-12-04T10:53:25;99747.91;;;-1.92;73.14
73338;BME280;61575;49.908;35.556;2023-12-04T10:56:33;99760.38;;;-2.12;73.76
73338;BME280;61575;49.908;35.556;2023-12-04T10:59:38;99764.03;;;-1.98;73.92
73338;BME280;61575;49.908;35.556;2023-12-04T11:02:43;99763.78;;;-1.94;73.90
73338;BME280;61575;49.908;35.556;2023-12-04T11:05:55;99763.63;;;-1.91;74.40
73338;BME280;61575;49.908;35.556;2023-12-04T11:08:58;99777.44;;;-1.87;73.99
73338;BME280;61575;49.908;35.556;2023-12-04T11:12:04;99783.72;;;-1.74;74.01
73338;BME280;61575;49.908;35.556;2023-12-04T11:15:09;99778.22;;;-1.69;74.14
73338;BME280;61575;49.908;35.556;2023-12-04T11:18:14;99771.66;;;-1.78;74.10
73338;BME280;61575;49.908;35.556;2023-12-04T11:21:19;99778.22;;;-1.85;74.20
73338;BME280;61575;49.908;35.556;2023-12-04T11:24:23;99772.19;;;-1.87;73.74
73338;BME280;61575;49.908;35.556;2023-12-04T11:27:25;99776.00;;;-1.93;74.12
73338;BME280;61575;49.908;35.556;2023-12-04T11:30:28;99775.75;;;-1.88;74.80
73338;BME280;61575;49.908;35.556;2023-12-04T11:33:36;99772.00;;;-1.84;75.08
73338;BME280;61575;49.908;35.556;2023-12-04T11:36:39;99773.53;;;-1.80;74.91
73338;BME280;61575;49.908;35.556;2023-12-04T11:39:42;99778.38;;;-1.88;75.28
73338;BME280;61575;49.908;35.556;2023-12-04T11:42:45;99776.34;;;-1.83;75.06
73338;BME280;61575;49.908;35.556;2023-12-04T11:45:47;99789.09;;;-1.91;75.00
73338;BME280;61575;49.908;35.556;2023-12-04T11:48:55;99785.44;;;-1.89;75.29
73338;BME280;61575;49.908;35.556;2023-12-04T11:51:59;99783.81;;;-1.91;75.29
73338;BME280;61575;49.908;35.556;2023-12-04T11:55:04;99787.38;;;-1.92;75.16
73338;BME280;61575;49.908;35.556;2023-12-04T11:58:09;99791.13;;;-1.96;75.46
73338;BME280;61575;49.908;35.556;2023-12-04T12:01:12;99787.63;;;-1.97;76.04
73338;BME280;61575;49.908;35.556;2023-12-04T12:04:15;99779.72;;;-2.13;76.10
73338;BME280;61575;49.908;35.556;2023-12-04T12:07:19;99790.34;;;-1.98;76.37
73338;BME280;61575;49.908;35.556;2023-12-04T12:10:22;99783.38;;;-1.99;76.38
73338;BME280;61575;49.908;35.556;2023-12-04T12:13:24;99778.72;;;-1.94;76.12
73338;BME280;61575;49.908;35.556;2023-12-04T12:16:28;99783.38;;;-1.99;76.19
73338;BME280;61575;49.908;35.556;2023-12-04T12:19:30;99785.16;;;-2.16;75.40
73338;BME280;61575;49.908;35.556;2023-12-04T12:22:34;99784.13;;;-2.29;74.54
73338;BME280;61575;49.908;35.556;2023-12-04T12:25:36;99784.84;;;-2.10;74.72
73338;BME280;61575;49.908;35.556;2023-12-04T12:28:38;99791.78;;;-2.09;75.05
73338;BME280;61575;49.908;35.556;2023-12-04T12:31:41;99787.13;;;-2.03;74.92
73338;BME280;61575;49.908;35.556;2023-12-04T12:34:43;99789.59;;;-2.00;74.89
73338;BME280;61575;49.908;35.556;2023-12-04T12:37:45;99780.94;;;-2.02;74.34
73338;BME280;61575;49.908;35.556;2023-12-04T12:40:47;99781.84;;;-2.19;74.31
73338;BME280;61575;49.908;35.556;2023-12-04T12:43:52;99788.66;;;-2.15;74.06
73338;BME280;61575;49.908;35.556;2023-12-04T12:46:55;99787.69;;;-2.30;73.96
73338;BME280;61575;49.908;35.556;2023-12-04T12:49:57;99780.91;;;-2.34;74.18
73338;BME280;61575;49.908;35.556;2023-12-04T12:53:01;99785.56;;;-2.23;75.25
73338;BME280;61575;49.908;35.556;2023-12-04T12:56:04;99791.50;;;-2.35;75.83
73338;BME280;61575;49.908;35.556;2023-12-04T12:59:07;99791.91;;;-2.43;76.57
73338;BME280;61575;49.908;35.556;2023-12-04T13:02:09;99800.41;;;-2.38;75.93
73338;BME280;61575;49.908;35.556;2023-12-04T13:05:12;99810.69;;;-2.33;75.84
73338;BME280;61575;49.908;35.556;2023-12-04T13:08:14;99805.66;;;-2.38;75.75
73338;BME280;61575;49.908;35.556;2023-12-04T13:11:19;99810.75;;;-2.35;75.42
73338;BME280;61575;49.908;35.556;2023-12-04T13:14:21;99814.81;;;-2.45;75.45
73338;BME280;61575;49.908;35.556;2023-12-04T13:17:23;99822.69;;;-2.45;75.32
73338;BME280;61575;49.908;35.556;2023-12-04T13:20:25;99826.50;;;-2.51;75.70
73338;BME280;61575;49.908;35.556;2023-12-04T13:23:27;99822.44;;;-2.41;75.36
73338;BME280;61575;49.908;35.556;2023-12-04T13:26:29;99831.44;;;-2.45;74.85
73338;BME280;61575;49.908;35.556;2023-12-04T13:29:32;99831.59;;;-2.48;75.50
73338;BME280;61575;49.908;35.556;2023-12-04T13:32:35;99838.72;;;-2.50;75.52
73338;BME280;61575;49.908;35.556;2023-12-04T13:35:37;99838.03;;;-2.70;75.07
73338;BME280;61575;49.908;35.556;2023-12-04T13:38:39;99845.94;;;-2.70;74.99
73338;BME280;61575;49.908;35.556;2023-12-04T13:41:45;99845.84;;;-2.69;74.37
73338;BME280;61575;49.908;35.556;2023-12-04T13:45:07;99849.88;;;-2.79;74.13
73338;BME280;61575;49.908;35.556;2023-12-04T13:48:11;99858.28;;;-2.90;73.93
73338;BME280;61575;49.908;35.556;2023-12-04T13:51:16;99861.31;;;-2.80;73.30
73338;BME280;61575;49.908;35.556;2023-12-04T13:54:20;99864.25;;;-2.86;73.36
73338;BME280;61575;49.908;35.556;2023-12-04T13:57:23;99865.09;;;-2.86;72.62
73338;BME280;61575;49.908;35.556;2023-12-04T14:00:35;99863.78;;;-2.77;72.93
73338;BME280;61575;49.908;35.556;2023-12-04T14:03:38;99871.22;;;-2.85;72.68
73338;BME280;61575;49.908;35.556;2023-12-04T14:06:40;99873.75;;;-2.84;73.04
73338;BME280;61575;49.908;35.556;2023-12-04T14:09:43;99883.81;;;-2.92;72.62
73338;BME280;61575;49.908;35.556;2023-12-04T14:12:46;99881.50;;;-2.81;72.75
73338;BME280;61575;49.908;35.556;2023-12-04T14:15:49;99882.41;;;-2.82;72.30
73338;BME280;61575;49.908;35.556;2023-12-04T14:18:51;99888.28;;;-2.77;72.23
73338;BME280;61575;49.908;35.556;2023-12-04T14:21:53;99888.44;;;-2.80;72.67
73338;BME280;61575;49.908;35.556;2023-12-04T14:24:55;99898.88;;;-2.95;72.69
73338;BME280;61575;49.908;35.556;2023-12-04T14:27:58;99897.47;;;-2.85;72.47
73338;BME280;61575;49.908;35.556;2023-12-04T14:31:00;99894.09;;;-2.87;72.49
73338;BME280;61575;49.908;35.556;2023-12-04T14:34:02;99892.16;;;-2.84;72.91
73338;BME280;61575;49.908;35.556;2023-12-04T14:37:05;99897.25;;;-2.81;73.03
73338;BME280;61575;49.908;35.556;2023-12-04T14:40:08;99897.88;;;-2.76;73.34
73338;BME280;61575;49.908;35.556;2023-12-04T14:43:10;99902.97;;;-2.72;72.81
73338;BME280;61575;49.908;35.556;2023-12-04T14:46:14;99895.25;;;-2.76;73.08
73338;BME280;61575;49.908;35.556;2023-12-04T14:49:16;99899.56;;;-2.92;72.88
73338;BME280;61575;49.908;35.556;2023-12-04T14:52:18;99900.34;;;-2.72;73.34
73338;BME280;61575;49.908;35.556;2023-12-04T14:55:22;99901.75;;;-2.83;73.11
73338;BME280;61575;49.908;35.556;2023-12-04T14:58:25;99905.22;;;-2.82;73.11
73338;BME280;61575;49.908;35.556;2023-12-04T15:01:30;99909.00;;;-2.70;73.43
73338;BME280;61575;49.908;35.556;2023-12-04T15:04:51;99915.03;;;-2.68;73.56
73338;BME280;61575;49.908;35.556;2023-12-04T15:08:06;99911.19;;;-2.61;73.72
73338;BME280;61575;49.908;35.556;2023-12-04T15:11:37;99914.56;;;-2.59;73.60
73338;BME280;61575;49.908;35.556;2023-12-04T15:14:39;99917.06;;;-2.74;73.47
73338;BME280;61575;49.908;35.556;2023-12-04T15:17:41;99931.34;;;-2.79;73.33
73338;BME280;61575;49.908;35.556;2023-12-04T15:21:12;99916.56;;;-2.82;73.68
73338;BME280;61575;49.908;35.556;2023-12-04T15:24:15;99928.19;;;-2.68;74.03
73338;BME280;61575;49.908;35.556;2023-12-04T15:27:18;99930.28;;;-2.58;74.75
73338;BME280;61575;49.908;35.556;2023-12-04T15:30:20;99934.38;;;-2.52;74.18
73338;BME280;61575;49.908;35.556;2023-12-04T15:33:22;99927.09;;;-2.64;73.60
73338;BME280;61575;49.908;35.556;2023-12-04T15:36:27;99927.66;;;-2.58;73.55
73338;BME280;61575;49.908;35.556;2023-12-04T15:39:29;99922.47;;;-2.59;73.29
73338;BME280;61575;49.908;35.556;2023-12-04T15:42:31;99939.69;;;-2.71;72.45
73338;BME280;61575;49.908;35.556;2023-12-04T15:45:34;99940.25;;;-2.64;72.39
73338;BME280;61575;49.908;35.556;2023-12-04T15:48:36;99948.75;;;-2.59;72.92
73338;BME280;61575;49.908;35.556;2023-12-04T15:51:40;99954.94;;;-2.60;73.22
73338;BME280;61575;49.908;35.556;2023-12-04T15:54:43;99943.50;;;-2.59;73.31
73338;BME280;61575;49.908;35.556;2023-12-04T15:57:45;99954.63;;;-2.54;73.27